x

8777812 - Rincon Del San Jose; Potrero Lopeno Sw, Tx (rsjt2) Weather Station

11:12 - Fri 15th Feb 2019 All times are CST. -6 hours from GMT.

  • Wind
    14mph, 20mph gusts
  • Sea Temp 71°f
  • Aire Temp 71°f
  • Sea Pressure 1008.1mb
  • 8777812 - Rincon Del San Jose; Potrero Lopeno Sw, Tx
  • 8777812 - Rincon Del San Jose; Potrero Lopeno Sw, Tx

More Historic Weather Station data

Upgrade to MSW Pro to gain access to the past 30 days of data for over 8000 Wavebouys and Weather Stations around the globe.

Join

Comparision Forecast

View Surf forecast
   
vie 02/15 11:12 14 20 mph 1008.1mb 71f 71f
11:06 15 20 mph 1008.1mb 71f 71f
11:00 20 23 mph 1008mb 71f 71f
10:48 17 22 mph - - -
10:42 18 22 mph 1007.8mb 71f 70f
10:36 16 22 mph 1007.9mb 71f 70f
10:30 22 24 mph 1007.7mb 71f 70f
10:24 15 17 mph 1007.8mb 71f 69f
10:18 16 18 mph 1007.8mb 71f 68f
10:12 17 22 mph 1007.7mb 71f 68f
10:06 20 23 mph 1007.5mb 71f 68f
10:00 22 24 mph 1007.4mb 71f 68f
9:54 18 22 mph 1007.5mb 71f 68f
9:48 17 21 mph 1007.6mb 71f 68f
9:42 18 22 mph 1007.6mb 71f 68f
9:36 20 22 mph 1007.6mb 71f 68f
9:30 18 22 mph 1007.7mb 71f 68f
9:24 18 21 mph 1007.6mb 71f 68f
9:18 20 24 mph 1007.6mb 71f 68f
9:12 20 22 mph 1007.4mb 71f 68f
9:06 18 22 mph 1007.4mb 70f 69f
9:00 20 23 mph 1007.2mb 70f 69f
8:54 20 22 mph 1007.2mb 70f 69f
8:48 18 22 mph 1007.1mb 70f 69f
8:42 20 24 mph 1007mb 71f 70f
8:36 21 24 mph 1006.7mb 70f 70f
8:30 22 24 mph 1006.7mb 70f 70f
8:24 21 24 mph 1006.9mb 71f 70f
8:18 21 24 mph 1006.9mb 71f 71f
8:12 21 23 mph 1007.1mb 71f 70f
8:06 21 23 mph 1007mb 71f 70f
8:00 18 21 mph 1007mb 71f 70f
7:54 18 21 mph 1007.1mb 71f 70f
7:48 17 20 mph 1007mb 71f 70f
7:42 18 21 mph 1007mb 71f 70f
7:36 18 21 mph 1006.9mb 71f 70f
7:30 17 20 mph 1006.9mb 71f 70f
7:24 16 20 mph 1006.9mb 71f 71f
7:18 18 22 mph 1006.8mb 71f 71f
7:12 18 22 mph 1006.7mb 70f 71f
7:06 20 23 mph 1006.7mb 70f 71f
7:00 17 22 mph 1006.5mb 70f 71f
6:48 18 22 mph - - -
6:42 20 23 mph 1006.3mb 71f 71f
6:36 21 24 mph 1006.4mb 71f 71f
6:30 20 22 mph 1006.4mb 71f 71f
6:24 18 22 mph 1006.4mb 72f 71f
6:18 20 24 mph 1006.3mb 72f 71f
6:12 21 23 mph 1006.2mb 72f 71f
6:06 20 23 mph 1006.2mb 71f 71f
6:00 20 24 mph 1006.1mb 71f 71f
5:54 20 23 mph 1006mb 71f 71f
5:48 20 23 mph 1006mb 71f 71f
5:42 20 24 mph 1005.8mb 71f 71f
5:36 21 23 mph 1005.8mb 71f 71f
5:30 20 22 mph 1005.7mb 71f 72f
5:24 21 23 mph 1005.7mb 72f 72f
5:18 20 23 mph 1005.8mb 72f 72f
5:12 21 23 mph 1005.7mb 72f 72f
5:06 18 22 mph 1005.7mb 72f 73f
4:54 18 22 mph 1005.7mb 72f 73f
4:48 16 18 mph 1005.8mb 73f 73f
4:42 16 20 mph 1005.9mb 73f 73f
4:36 16 20 mph 1005.6mb 73f 73f
4:30 17 20 mph 1005.4mb 73f 73f
4:24 18 21 mph 1005.5mb 73f 73f
4:18 17 20 mph 1005.6mb 73f 74f
4:12 17 20 mph 1005.8mb 73f 74f
4:06 18 21 mph 1005.7mb 73f 74f
4:00 16 20 mph 1005.7mb 73f 74f
3:54 17 22 mph 1005.6mb 73f 74f
3:48 18 21 mph - - -
3:42 18 21 mph 1005.6mb 73f 75f
3:36 16 21 mph 1005.5mb 73f 75f
3:30 18 21 mph 1005.4mb 73f 75f
3:24 16 21 mph 1005.5mb 73f 75f
3:18 16 21 mph 1005.5mb 73f 75f
3:12 17 21 mph 1005.3mb 73f 75f
3:06 20 22 mph 1005.3mb 73f 75f
3:00 18 22 mph 1005.3mb 73f 75f
2:54 20 21 mph 1005.4mb 73f 75f
2:48 17 21 mph 1005.5mb 73f 75f
2:42 17 20 mph 1005.6mb 73f 75f
2:36 16 18 mph 1005.7mb 72f 75f
2:30 15 17 mph 1005.8mb 72f 75f
2:24 15 18 mph 1005.8mb 72f 75f
2:18 15 18 mph 1005.7mb - -
2:12 15 18 mph 1005.8mb 72f 75f
2:06 15 18 mph 1005.8mb 71f 75f
2:00 16 18 mph 1006mb 71f 75f
1:54 17 20 mph 1006.2mb 71f 75f
1:48 17 20 mph 1006.3mb 70f 74f
1:42 17 18 mph 1006.5mb 70f 74f
1:36 16 18 mph 1006.6mb 69f 74f
1:30 16 20 mph 1006.7mb 69f 74f
1:24 16 18 mph 1006.9mb 68f 73f
1:18 15 17 mph 1007.2mb 68f 74f
1:12 14 17 mph 1007.5mb 68f 73f
1:06 16 18 mph 1007.5mb 68f 73f
12:54 15 18 mph 1007.7mb 67f 73f
12:48 16 18 mph 1007.8mb 67f 73f
12:42 14 17 mph 1008mb 67f 72f
12:36 15 17 mph 1008.1mb 67f 72f
12:30 14 17 mph 1008.1mb 67f 71f
12:24 15 17 mph 1008.2mb 67f 71f
12:18 14 16 mph 1008.4mb 67f 71f
12:12 14 15 mph 1008.5mb 66f 71f
12:06 14 15 mph 1008.7mb 66f 71f
12:00 14 15 mph 1008.7mb 66f 71f
11:54 13 14 mph 1008.8mb 66f 70f
11:48 11 13 mph 1009.1mb 66f 70f
11:42 10 13 mph 1009.4mb 66f 70f
11:36 10 11 mph 1009.5mb 66f 70f
11:30 10 11 mph 1009.6mb 66f 70f
11:24 9 13 mph 1009.8mb 66f 70f
11:18 9 15 mph 1009.9mb 65f 70f
11:12 9 16 mph 1009.9mb 65f 73f
11:06 13 15 mph 1010.1mb 65f 73f
11:00 13 17 mph 1010.1mb 65f 72f
10:54 11 16 mph 1010.3mb 65f 72f
10:48 13 15 mph 1010.3mb 65f 71f
10:42 13 16 mph 1010.4mb 65f 71f
10:36 14 15 mph 1010.5mb 65f 71f
10:30 11 15 mph 1010.4mb 65f 71f
10:24 14 15 mph 1010.5mb 65f 71f
10:18 14 16 mph 1010.6mb 65f 71f
10:12 14 17 mph 1010.4mb 65f 70f
10:06 15 17 mph 1010.4mb 65f 70f
10:00 14 18 mph 1010.6mb - -
9:54 15 18 mph 1010.6mb 65f 69f
9:48 17 20 mph - - -
9:42 17 20 mph 1010.4mb 64f 69f
9:36 17 21 mph 1010.4mb 64f 69f
9:30 17 21 mph 1010.3mb 64f 68f
9:24 18 22 mph 1010.3mb 64f 68f
9:18 21 23 mph 1010.1mb 64f -
9:12 20 23 mph 1010.1mb 64f 68f
9:06 21 23 mph 1009.9mb 64f 68f
9:00 18 23 mph 1009.7mb 64f 67f
8:54 21 25 mph 1009.4mb 64f 67f
8:48 22 24 mph 1009.3mb 64f 67f
8:42 20 24 mph 1009.5mb 64f 67f
8:36 20 24 mph 1009.4mb 64f 67f
8:30 22 24 mph 1009.4mb 64f 67f
8:24 20 24 mph 1009.2mb 64f 67f
8:18 18 21 mph 1009.6mb - -
8:12 17 22 mph 1009.9mb 64f 67f
8:06 17 22 mph 1009.8mb 64f 67f
8:00 17 18 mph 1009.7mb 64f 67f
7:42 11 15 mph 1009.8mb 64f 67f
7:36 10 13 mph 1009.7mb 64f 67f
7:30 10 14 mph 1009.6mb 64f 66f
7:24 13 14 mph 1009.4mb 64f 67f
7:18 11 14 mph 1009.2mb 64f 66f
7:12 10 14 mph 1009.2mb 64f 66f
7:06 11 14 mph 1009.1mb 64f 66f
7:00 13 16 mph 1009mb 64f -
6:42 14 15 mph 1008.6mb 64f 66f
6:36 14 15 mph 1008.5mb 64f 66f
6:30 13 15 mph 1008.4mb 64f 66f
6:24 13 15 mph 1008.4mb 64f 65f
6:18 10 13 mph 1008.4mb 64f 64f
6:12 10 11 mph 1008.2mb 64f 64f
6:06 10 14 mph 1008.3mb 64f 64f
6:00 11 14 mph 1008.1mb 64f 64f
5:54 13 14 mph 1007.9mb 64f 64f
5:48 11 13 mph 1008.1mb 64f 64f
5:42 10 11 mph 1008.2mb 64f 63f
5:36 10 11 mph 1008.1mb 64f 63f
5:30 9 10 mph 1008.2mb 64f 64f
5:24 7 8 mph 1008.4mb 64f 63f
5:18 7 9 mph 1008.7mb 64f 63f
5:12 8 9 mph 1008.7mb 64f 63f
5:06 8 9 mph 1008.7mb 64f 63f
5:00 8 8 mph 1008.7mb 64f 63f
4:54 7 8 mph 1008.8mb 64f 63f
4:48 6 6 mph 1009mb - -
4:42 6 7 mph 1009mb 64f 63f
4:36 7 8 mph 1009mb 64f 63f
4:30 7 8 mph 1009.1mb 64f 63f
4:24 7 8 mph 1009.1mb 64f 63f
4:18 7 8 mph - - -
4:12 7 8 mph 1009.2mb 64f 63f
4:06 7 8 mph 1009.2mb 64f 63f
4:00 6 6 mph 1009.4mb 64f 63f
3:48 7 8 mph 1009.4mb - -
3:42 7 8 mph 1009.4mb 64f 63f
3:36 7 8 mph 1009.5mb 65f 63f
3:30 7 8 mph 1009.6mb 65f 63f
3:24 7 8 mph 1009.6mb 65f 63f
3:18 7 9 mph 1009.6mb 65f 63f
3:12 8 10 mph 1009.5mb 65f 63f
3:06 9 11 mph 1009.5mb 65f 63f
3:00 10 11 mph 1009.5mb 65f 63f
2:54 10 11 mph 1009.7mb 65f 63f
2:48 10 11 mph 1009.7mb 65f 63f
2:42 10 11 mph 1009.7mb 65f 63f
2:36 11 13 mph 1009.8mb 65f 63f
2:30 11 13 mph 1010mb 65f 63f
2:24 10 11 mph 1010.2mb 65f 63f
2:18 8 9 mph 1010.3mb 65f 63f
2:12 7 8 mph 1010.4mb 65f 63f
2:06 6 7 mph 1010.5mb 65f 63f
2:00 6 7 mph 1010.7mb 65f 63f
1:54 6 7 mph 1010.7mb 65f 63f
1:48 6 7 mph 1010.7mb 65f 63f
1:42 6 7 mph 1010.7mb 65f 63f
1:36 6 7 mph 1010.8mb 65f 63f
1:30 6 6 mph 1010.9mb 65f 63f
1:24 5 5 mph 1010.9mb 65f 63f
1:18 3 3 mph 1011mb 65f 63f
1:12 3 5 mph 1011.1mb 65f 63f
1:06 3 5 mph 1011.1mb 65f 64f
1:00 3 5 mph - - -
12:54 3 6 mph 1011.1mb 65f 64f
12:48 6 7 mph 1010.9mb 65f 64f
12:42 6 7 mph 1010.9mb 65f 64f
12:36 6 7 mph 1010.9mb 65f 63f
12:30 5 6 mph 1011mb 65f 63f
12:24 5 6 mph 1011.1mb 65f 63f
12:18 6 6 mph 1011mb 65f 63f
12:12 6 7 mph 1011.1mb 65f 63f
12:06 7 9 mph 1011.2mb 65f 63f
12:00 8 10 mph 1011.1mb 65f 63f
jue 02/14 11:54 9 11 mph 1011.1mb 65f 63f
11:48 9 13 mph 1011.1mb 65f 64f
11:42 11 13 mph 1010.9mb 65f 64f
11:36 11 13 mph 1011mb 65f 64f
11:30 11 13 mph 1011.1mb 65f 64f
11:24 10 13 mph 1011.2mb 65f 64f
11:18 10 13 mph 1011.2mb 65f 64f
11:12 10 11 mph 1011.3mb 65f 64f
11:06 9 13 mph 1011.4mb 65f 64f
11:00 10 13 mph 1011.4mb 66f 64f
10:42 10 13 mph 1011.5mb 65f 64f
10:36 10 11 mph 1011.6mb 65f 64f
10:30 10 11 mph 1011.6mb 65f 64f
10:24 10 11 mph 1011.7mb 65f 64f
10:18 10 11 mph 1011.7mb 65f 64f
10:12 8 10 mph 1011.9mb 65f 64f
10:06 9 10 mph 1011.9mb 65f 64f
10:00 9 11 mph 1011.9mb 65f 65f
9:54 10 13 mph 1011.9mb 65f 65f
9:48 10 11 mph 1012mb 65f 65f
9:42 9 11 mph 1012mb 65f 65f
9:36 10 11 mph 1012mb 65f 65f
9:30 9 10 mph 1011.9mb 65f 65f
9:24 9 11 mph 1012mb 65f 65f
9:18 10 11 mph 1011.9mb 65f 65f
9:12 10 13 mph 1011.7mb 65f 65f
9:06 10 13 mph 1011.6mb 65f 65f
9:00 10 11 mph 1011.6mb 65f 65f
8:54 10 14 mph 1011.6mb 66f 65f
8:48 11 15 mph 1011.3mb 66f 65f
8:42 14 17 mph 1011.1mb 66f 65f
8:36 14 16 mph 1011.1mb 66f 65f
8:30 14 16 mph 1011.1mb 66f 65f
8:24 15 18 mph 1010.9mb 66f 65f
8:18 17 20 mph 1010.8mb - -
8:12 17 20 mph 1010.8mb 66f 66f
8:06 16 18 mph 1010.8mb 66f 66f
8:00 17 20 mph 1010.9mb 66f 66f
7:54 16 21 mph 1010.8mb 66f 66f
7:48 18 21 mph 1010.8mb 66f 66f
7:42 17 18 mph 1010.7mb 66f 66f
7:36 17 20 mph 1010.8mb 66f 66f
7:30 15 18 mph 1010.9mb 66f 66f
7:24 16 20 mph 1010.8mb 66f 66f
7:18 17 20 mph 1010.7mb 66f 66f
7:12 16 20 mph 1010.7mb 66f 66f
7:06 18 22 mph 1010.6mb 65f 67f
7:00 17 20 mph 1010.6mb 65f 67f
6:48 17 18 mph 1010.7mb - -
6:42 16 20 mph 1010.6mb 65f 67f
6:36 17 20 mph 1010.4mb 65f 67f
6:30 16 18 mph 1010.5mb 65f 67f
6:24 16 20 mph 1010.5mb 65f 67f
6:18 17 20 mph 1010.6mb 65f 67f
6:12 17 20 mph 1010.5mb 65f 67f
6:06 17 20 mph 1010.7mb 65f 67f
6:00 16 20 mph 1010.7mb 65f 67f
5:42 14 17 mph 1010.7mb 65f 69f
5:36 15 18 mph 1010.9mb 65f 69f
5:30 15 18 mph 1010.6mb 65f 69f
5:24 16 18 mph 1010.5mb 65f 69f
5:18 16 18 mph 1010.4mb - -
5:12 15 17 mph 1010.4mb 65f 69f
5:06 15 16 mph 1010.5mb 65f 69f
5:00 13 16 mph 1010.6mb 65f 69f
4:54 15 16 mph 1010.6mb 65f 69f
4:48 15 17 mph 1010.5mb 65f 70f
4:42 15 16 mph 1010.4mb 65f 70f
4:36 14 15 mph 1010.4mb 65f 70f
4:30 14 16 mph 1010.5mb 65f 70f
4:24 14 15 mph 1010.4mb 65f 70f
4:18 13 14 mph 1010.4mb 65f 70f
4:12 10 15 mph 1010.3mb 65f 69f
4:06 13 16 mph 1010.3mb 65f 70f
4:00 14 16 mph 1010.3mb 64f 70f
3:42 14 16 mph 1010.1mb 64f 69f
3:36 15 17 mph 1010.1mb 64f 69f
3:30 15 17 mph 1010.2mb 64f 69f
3:24 14 16 mph 1010.2mb 64f 69f
3:18 10 15 mph 1010.4mb - -
3:12 13 15 mph 1010.5mb 64f 69f
3:06 14 16 mph 1010.5mb 64f 69f
3:00 11 15 mph 1010.5mb 64f 69f
2:54 15 17 mph 1010.4mb 64f 69f
2:48 11 14 mph 1010.5mb 65f 69f
2:42 11 16 mph 1010.6mb 65f 69f
2:36 10 15 mph 1010.7mb 64f 68f
2:30 13 16 mph 1010.9mb 64f 69f
2:24 14 17 mph 1010.9mb 64f 69f
2:18 14 16 mph - - -
2:12 16 21 mph 1011mb 64f 69f
2:06 14 16 mph 1010.9mb 64f 68f
2:00 15 20 mph 1011mb 63f 69f
1:42 13 18 mph 1011.5mb 63f 69f
1:36 18 23 mph 1011.6mb 63f 73f
1:30 15 17 mph 1011.7mb 63f 68f
1:24 15 21 mph 1011.9mb 63f 69f
1:18 16 20 mph 1012.1mb 63f 69f
1:12 13 18 mph 1012.4mb 63f 69f
1:06 16 18 mph 1012.4mb 63f 69f
12:42 16 18 mph 1012.6mb 63f 67f
12:36 14 17 mph 1012.7mb 63f 67f
12:30 15 17 mph 1012.7mb 63f 67f
12:24 14 17 mph 1013mb 62f 67f
12:18 15 17 mph 1013.1mb 62f 67f
12:12 15 17 mph 1013.3mb 62f 67f
12:06 11 16 mph 1013.8mb 62f 67f
12:00 14 17 mph 1013.9mb 62f 67f
11:54 13 15 mph 1014mb 62f 67f
11:48 13 15 mph 1014mb 62f 66f
11:42 13 14 mph 1014.1mb 62f 66f
11:36 14 16 mph 1014.1mb 62f 66f
11:30 14 17 mph 1014.2mb 62f 66f
11:24 15 17 mph 1014.2mb 62f 66f
11:18 14 16 mph 1014.4mb 62f 65f
11:12 13 16 mph 1014.5mb 62f 65f
11:06 14 17 mph 1014.5mb 62f 65f
11:00 13 15 mph 1014.4mb 62f 65f
10:54 14 16 mph 1014.6mb 62f 65f
10:48 11 16 mph - - -
10:42 11 14 mph 1014.6mb 62f 64f
10:36 13 17 mph 1014.7mb 62f 65f
10:30 10 14 mph 1014.8mb 62f 64f
10:24 11 14 mph 1014.8mb 62f 64f
10:18 10 13 mph 1014.9mb 62f 64f
10:12 10 11 mph 1014.9mb 61f 63f
10:06 10 13 mph 1015mb 61f 63f
10:00 10 13 mph 1014.9mb 61f 63f
9:48 10 13 mph 1014.9mb 61f -
9:42 11 13 mph 1014.8mb 61f 62f
9:36 11 14 mph 1014.8mb 61f 62f
9:30 10 11 mph 1014.7mb 61f 62f
9:24 9 10 mph 1014.7mb 61f 61f
9:18 9 10 mph 1014.6mb 61f 61f
9:12 9 11 mph 1014.5mb 61f 61f
9:06 9 10 mph 1014.4mb 61f 61f
9:00 8 9 mph 1014.5mb 61f 61f
8:42 10 13 mph 1014.4mb 60f 61f
8:36 10 13 mph 1014.3mb 60f 61f
8:30 11 14 mph 1014.2mb 60f 61f
8:24 11 14 mph 1014.2mb 60f 61f
8:18 11 14 mph 1014.2mb - -
8:12 13 14 mph 1014.3mb 60f 61f
8:06 11 14 mph 1014.3mb 60f 60f
8:00 11 13 mph 1014.3mb 60f 60f
7:54 10 13 mph 1014.4mb 60f 60f
7:48 9 10 mph - - -
7:42 9 11 mph 1014.5mb 61f 60f
7:36 9 10 mph 1014.5mb 61f 60f
7:30 9 10 mph 1014.6mb 61f 60f
7:24 10 11 mph 1014.5mb 61f 60f
7:18 9 10 mph 1014.5mb 61f 60f
7:12 9 10 mph 1014.5mb 60f 60f
7:06 10 11 mph 1014.3mb 60f 60f
7:00 9 10 mph 1014.4mb 61f 60f
6:42 10 11 mph 1014.3mb 60f 60f
6:36 10 10 mph 1014.3mb 60f 60f
6:30 9 10 mph 1014.3mb 61f 60f
6:24 10 11 mph 1014.2mb 61f 60f
6:18 10 11 mph 1014.1mb 61f 60f
6:12 10 11 mph 1014mb 61f 60f
6:06 10 11 mph 1014.2mb 61f 60f
6:00 10 13 mph 1014.2mb 61f 60f
5:48 9 11 mph 1014.1mb - -
5:42 9 11 mph 1014mb 60f 60f
5:36 10 11 mph 1014.1mb 60f 60f
5:30 10 11 mph 1014.2mb 60f 60f
5:24 9 10 mph 1014.4mb 60f 60f
5:18 8 9 mph 1014.5mb - -
5:12 8 8 mph 1014.7mb 61f 60f
5:06 7 8 mph 1014.6mb 61f 60f
5:00 6 7 mph 1014.6mb 61f 60f
4:54 6 8 mph 1014.7mb 61f 60f
4:48 7 8 mph 1014.6mb 61f 60f
4:42 7 8 mph 1014.6mb 61f 60f
4:36 7 9 mph 1014.7mb 61f 60f
4:30 8 10 mph 1014.8mb 61f 60f
4:24 10 11 mph 1014.6mb 61f 60f
4:18 9 10 mph 1014.8mb 61f 60f
4:12 10 13 mph 1014.8mb 61f 60f
4:06 10 13 mph 1014.9mb 61f 60f
4:00 10 11 mph 1015mb 61f 60f
3:54 10 11 mph 1015.2mb 61f 61f
3:48 10 13 mph 1015.2mb 61f 61f
3:42 11 14 mph 1015.1mb 61f 61f
3:36 13 14 mph 1015mb 61f 61f
3:30 11 14 mph 1015.1mb 61f 61f
3:24 11 14 mph 1015.2mb 61f 61f
3:18 11 14 mph 1015.3mb 61f 61f
3:12 13 14 mph 1015.3mb 61f 61f
3:06 11 14 mph 1015.4mb 61f 61f
3:00 11 13 mph 1015.6mb 61f 61f
2:54 10 13 mph 1015.9mb 61f 61f
2:48 10 13 mph 1015.9mb 61f 61f
2:42 11 14 mph 1015.9mb 61f 61f
2:36 13 14 mph 1015.7mb 61f 61f
2:30 11 14 mph 1015.8mb 61f 61f
2:24 11 14 mph 1015.8mb 61f 61f
2:18 11 14 mph 1015.8mb 61f 61f
2:12 10 13 mph 1016mb 61f 61f
2:06 11 13 mph 1016.2mb 61f 61f
2:00 11 13 mph 1016.2mb 61f 61f
1:54 11 13 mph 1016.3mb 61f 61f
1:48 10 13 mph 1016.4mb 61f 60f
1:42 10 11 mph 1016.5mb 61f 61f
1:36 10 11 mph 1016.6mb 61f 61f
1:30 10 13 mph 1016.7mb 61f 61f
1:24 10 11 mph 1016.8mb 61f 60f
1:18 10 11 mph 1016.9mb 61f 60f
1:12 10 11 mph 1017mb 61f 60f
1:06 10 11 mph 1017mb 61f 60f
1:00 10 14 mph 1017mb 61f 61f
12:54 11 13 mph 1017mb 61f 61f
12:48 11 14 mph 1017mb 61f 61f
12:42 13 14 mph 1017mb 61f 61f
12:36 11 14 mph 1017.1mb 61f 61f
12:30 13 14 mph 1017.1mb 61f 61f
12:24 13 15 mph 1017.2mb 61f 61f
12:18 13 15 mph - - -
12:12 13 14 mph 1017.5mb 61f 61f
12:06 11 14 mph 1017.6mb 61f 61f
12:00 11 14 mph 1017.8mb 61f 61f
mié 02/13 11:54 11 14 mph 1017.8mb 61f 61f
11:48 13 14 mph 1017.8mb 61f 61f
11:42 13 14 mph 1017.9mb 61f 61f
11:36 11 13 mph 1018mb 61f 61f
11:30 13 15 mph 1018mb - -
11:24 13 15 mph 1017.9mb 61f 61f
11:18 15 16 mph 1017.8mb 61f 61f
11:12 14 17 mph 1017.8mb 61f 61f
11:06 14 17 mph 1017.9mb 61f 61f
11:00 15 18 mph 1018mb - -
10:54 15 17 mph 1018mb 61f 61f
10:48 14 16 mph 1018.1mb 61f 61f
10:42 14 16 mph 1018.1mb 61f 61f
10:36 14 16 mph 1018.1mb 61f 61f
10:30 14 17 mph 1018.1mb 61f 61f
10:24 14 18 mph 1018.1mb 61f 61f
10:18 16 20 mph 1018.1mb 61f 61f
10:12 17 20 mph 1018.1mb 61f 61f
10:06 16 20 mph 1018.1mb 61f 61f
10:00 18 21 mph 1017.8mb 62f 61f
9:54 17 21 mph 1017.8mb 62f 61f
9:48 17 21 mph 1017.9mb 62f 61f
9:42 17 21 mph 1017.9mb 62f 61f
9:36 17 21 mph 1018.2mb 62f 61f
9:30 17 20 mph 1018.5mb 62f 61f
9:24 16 20 mph 1018.6mb 62f 61f
9:18 17 18 mph 1018.7mb 62f 61f
9:12 16 20 mph 1018.8mb 62f 61f
9:06 16 20 mph 1018.8mb 62f 61f
9:00 16 20 mph 1018.8mb 62f 61f
8:54 16 17 mph 1018.8mb 62f 61f
8:48 16 18 mph 1019mb 62f 61f
8:42 16 20 mph 1018.9mb 62f 61f
8:36 16 17 mph 1019mb 63f 61f
8:30 16 18 mph 1019.2mb 63f 61f
8:24 15 18 mph 1019.2mb 63f 61f
8:18 16 18 mph 1019.2mb 63f 61f
8:12 16 18 mph 1019.1mb 62f 61f
8:06 16 20 mph 1019.1mb 62f 61f
8:00 16 20 mph 1019.1mb 62f 62f
7:54 15 18 mph 1019.3mb 62f 62f
7:48 15 16 mph 1019.3mb 62f 62f
7:42 14 16 mph 1019.5mb 62f 62f
7:36 14 17 mph 1019.5mb 62f 62f
7:30 15 16 mph 1019.6mb 62f 62f
7:24 14 16 mph 1019.6mb 62f 62f
7:18 13 15 mph 1019.6mb 62f 62f
7:12 14 15 mph 1019.6mb 62f 62f
7:06 14 15 mph 1019.6mb 62f 62f
7:00 14 15 mph 1019.5mb 62f 62f
6:54 13 15 mph 1019.4mb 62f 62f
6:48 13 14 mph 1019.4mb 62f 62f
6:42 13 14 mph 1019.4mb 62f 62f
6:36 13 15 mph 1019.4mb 63f 62f
6:30 13 16 mph 1019.3mb 63f 62f
6:24 15 17 mph 1019.3mb 63f 62f
6:18 14 16 mph 1019.2mb 63f 63f
6:12 15 17 mph 1019.3mb 63f 63f
6:06 13 16 mph 1019.5mb 63f 63f
6:00 15 17 mph 1019.4mb 63f 63f
5:42 14 17 mph 1019.4mb 63f 63f
5:36 14 17 mph 1019.5mb 63f 63f
5:30 15 18 mph 1019.5mb 63f 63f
5:24 15 18 mph 1019.6mb 63f 64f
5:18 14 17 mph 1019.7mb 63f 64f
5:12 17 20 mph 1019.7mb 62f 64f
5:06 16 20 mph 1019.8mb 62f 64f
5:00 15 17 mph 1019.8mb 62f 64f
4:54 15 17 mph 1019.9mb 63f 64f
4:48 16 20 mph 1019.9mb 63f 64f
4:42 14 17 mph 1020mb 63f 64f
4:36 15 18 mph 1020mb 63f 64f
4:30 15 18 mph 1020mb 63f 64f
4:24 14 17 mph 1020mb 64f 64f
4:18 14 18 mph 1020.1mb 64f 64f
4:12 15 20 mph 1020.2mb 64f 64f
4:06 15 18 mph 1020.2mb 64f 64f
4:00 15 18 mph 1020.3mb 64f 64f
3:42 14 16 mph 1020.5mb 63f 64f
3:36 15 18 mph 1020.5mb 63f 64f
3:30 14 16 mph 1020.6mb 63f 64f
3:24 15 17 mph 1020.8mb 63f 64f
3:18 13 15 mph 1020.9mb 63f 64f
3:12 11 14 mph 1021mb 62f 65f
3:06 10 11 mph 1021.1mb 63f 65f
3:00 10 11 mph 1021.3mb 62f 64f
2:54 9 11 mph 1021.4mb 62f 64f
2:48 10 13 mph 1021.4mb 62f 64f
2:42 9 10 mph 1021.6mb 62f 64f
2:36 9 10 mph 1021.8mb 62f 64f
2:30 9 11 mph 1022mb - -
2:24 9 13 mph 1022.1mb 61f 64f
2:18 9 10 mph 1022.2mb 61f 64f
2:12 8 11 mph 1022.4mb 61f 64f
2:06 8 9 mph 1022.4mb 61f 64f
2:00 8 10 mph 1022.6mb 61f 64f
1:54 8 9 mph 1022.7mb 61f 64f
1:48 9 10 mph 1022.9mb 61f 64f
1:42 8 10 mph 1023.1mb 61f 64f
1:36 8 10 mph 1023.2mb 61f 64f
1:30 8 10 mph 1023.3mb 61f 64f
1:24 8 11 mph 1023.3mb 61f 64f
1:18 10 13 mph 1023.4mb 61f 64f
1:12 8 9 mph 1023.8mb 61f 64f
1:06 8 11 mph 1023.9mb 61f 64f
1:00 10 13 mph 1024.1mb 61f 64f
12:30 6 7 mph 1024.5mb 60f 62f
12:24 5 10 mph 1024.6mb 60f 62f
12:18 6 9 mph 1024.8mb 60f 62f
12:12 3 6 mph 1025mb 60f 62f
12:06 3 5 mph 1025.2mb 60f 62f
12:00 5 6 mph 1025.4mb 60f 62f
11:54 5 9 mph 1025.5mb 60f 62f
11:48 7 9 mph 1025.7mb - -
11:42 6 9 mph 1025.8mb 60f 62f
11:36 6 8 mph 1025.9mb 60f 62f
11:30 5 7 mph 1026mb 60f 62f
11:24 3 5 mph 1026mb 60f 62f
11:18 5 5 mph 1026.2mb 60f 62f
11:12 2 3 mph 1026.3mb 60f 62f
11:06 1 2 mph 1026.3mb 60f 62f
11:00 2 3 mph 1026.4mb 60f 62f
10:54 2 3 mph 1026.4mb 60f 61f
10:48  -  2 mph - - -
10:42  -  2 mph 1026.6mb 59f 61f
10:36 1 5 mph 1026.6mb 59f 62f
10:30 5 6 mph 1026.6mb 59f 61f
10:24 3 6 mph 1026.6mb 59f 61f
10:18 3 5 mph 1026.6mb 59f 61f
10:12 3 6 mph 1026.6mb 59f 60f
10:06 2 6 mph 1026.7mb 59f 60f
10:00 2 5 mph 1026.8mb 59f 59f
9:54 2 3 mph 1026.8mb 59f 58f
9:48 3 5 mph 1026.9mb 59f 58f
9:42 3 3 mph 1026.8mb 59f 57f
9:36 3 3 mph 1026.7mb 59f 57f
9:30 3 3 mph 1026.6mb 59f 59f
9:24 3 5 mph 1026.7mb 58f 58f
9:18 3 5 mph 1026.7mb 58f 58f
9:12 5 6 mph 1026.7mb 58f 55f
9:06 5 6 mph 1026.7mb 58f 54f
9:00 5 6 mph 1026.6mb 58f 54f
8:54 5 5 mph 1026.5mb 58f 55f
8:48 3 5 mph 1026.5mb 58f 55f
8:42 5 6 mph 1026.5mb 58f 53f
8:36 5 6 mph 1026.4mb 58f 50f
8:30 5 6 mph 1026.4mb 58f 50f
8:24 6 7 mph 1026.3mb 58f 49f
8:18 6 7 mph 1026.1mb 58f 49f
8:12 6 7 mph 1026.1mb 58f 49f
8:06 6 7 mph 1026.1mb 58f 50f
8:00 6 7 mph 1026mb 58f 50f
7:54 5 6 mph 1026mb 58f 50f
7:48 5 6 mph 1026mb 58f 49f
7:42 6 7 mph 1026mb 58f 49f
7:36 6 8 mph 1025.9mb 58f 48f
7:30 7 7 mph 1025.8mb 58f 48f
7:24 7 7 mph 1025.7mb 58f 48f
7:18 7 8 mph 1025.7mb 58f 48f
7:12 6 7 mph 1025.7mb 58f 48f
7:06 6 7 mph 1025.7mb 58f 47f
7:00 6 7 mph 1025.7mb 57f 48f
6:54 7 8 mph 1025.7mb 57f 47f
6:48 7 8 mph 1025.7mb 57f 47f
6:42 7 8 mph 1025.7mb 57f 48f
6:36 8 8 mph 1025.7mb 57f 48f
6:30 7 8 mph 1025.7mb 57f 48f
6:24 7 8 mph 1025.6mb 57f 48f
6:18 6 7 mph 1025.6mb 57f 48f
6:12 6 6 mph 1025.6mb 57f 48f
6:06 6 7 mph 1025.5mb 57f 48f
6:00 6 7 mph 1025.5mb 57f 48f
5:54 7 8 mph 1025.4mb 57f 48f
5:48 7 8 mph 1025.4mb 57f 48f
5:42 7 8 mph 1025.5mb 57f 48f
5:36 7 8 mph 1025.5mb 57f 48f
5:30 7 8 mph 1025.5mb 57f 48f
5:24 7 7 mph 1025.5mb 57f 48f
5:18 7 8 mph 1025.5mb 57f 48f
5:12 7 7 mph 1025.5mb 57f 49f
5:06 7 7 mph 1025.5mb 57f 49f
5:00 6 7 mph 1025.5mb 57f 49f
4:54 6 7 mph 1025.5mb 57f 49f
4:48 6 7 mph - - -
4:42 6 7 mph 1025.7mb 57f 49f
4:36 6 6 mph 1025.8mb 57f 49f
4:30 6 6 mph 1025.8mb 57f 49f
4:24 5 6 mph 1025.9mb 57f 49f
4:18 6 6 mph 1026.1mb 57f 49f
4:12 5 6 mph 1026.1mb 57f 49f
4:06 5 6 mph 1026.1mb 57f 49f
4:00 5 6 mph 1026.2mb 57f 49f
3:54 6 6 mph 1026.2mb 57f 49f
3:48 5 6 mph 1026.2mb 57f 49f
3:42 5 6 mph 1026.2mb 57f 49f
3:36 6 6 mph 1026.2mb 57f 49f
3:30 5 6 mph 1026.2mb 57f 49f
3:24 5 6 mph 1026.3mb 57f 49f
3:18 5 6 mph 1026.4mb 57f 49f
3:12 5 7 mph 1026.5mb 57f 50f
3:06 6 7 mph 1026.5mb 57f 50f
3:00 5 6 mph 1026.5mb 57f 50f
2:54 5 6 mph 1026.4mb 57f 50f
2:48 6 6 mph 1026.4mb 57f 50f
2:42 5 6 mph 1026.4mb 57f 50f
2:36 6 6 mph 1026.5mb 57f 50f
2:30 5 6 mph 1026.5mb 57f 51f
2:24 5 6 mph 1026.4mb 57f 51f
2:18 5 6 mph - - -
2:12 6 7 mph 1026.3mb 57f 51f
2:06 6 6 mph 1026.4mb 57f 51f
2:00 6 7 mph 1026.3mb 57f 51f
1:54 6 8 mph 1026.5mb 57f 51f
1:48 7 8 mph 1026.6mb 57f 51f
1:42 7 8 mph 1026.5mb 57f 51f
1:36 7 9 mph 1026.5mb 57f 50f
1:30 8 9 mph 1026.5mb 57f 50f
1:24 8 9 mph 1026.3mb 57f 50f
1:18 8 10 mph 1026.4mb 57f 50f
1:12 9 9 mph 1026.5mb 57f 50f
1:06 8 9 mph 1026.5mb 57f 50f
1:00 7 9 mph 1026.5mb 57f 51f
12:54 7 8 mph 1026.5mb 57f 51f
12:48 8 9 mph 1026.4mb 57f 51f
12:42 8 10 mph 1026.5mb 57f 51f
12:36 9 9 mph 1026.4mb 57f 51f
12:30 9 10 mph 1026.3mb 57f 51f
12:24 9 10 mph 1026.3mb 57f 52f
12:18 8 10 mph 1026.4mb 57f 52f
12:12 9 10 mph 1026.4mb 57f 52f
12:06 9 10 mph 1026.4mb 57f 52f
12:00 9 10 mph 1026.5mb 57f 52f
mar 02/12 11:54 8 9 mph 1026.5mb 57f 52f
11:48 9 10 mph 1026.5mb 57f 52f
11:42 9 10 mph 1026.6mb 57f 52f
11:36 8 9 mph 1026.7mb 57f 53f
11:30 7 9 mph 1026.8mb 57f 53f
11:24 7 8 mph 1026.8mb 57f 53f
11:18 6 7 mph 1026.8mb 57f 53f
11:12 7 7 mph 1026.9mb 57f 54f
11:06 6 7 mph 1026.8mb 57f 54f
11:00 6 7 mph 1026.8mb 57f 54f
10:54 6 7 mph 1026.8mb 57f 55f
10:48 7 7 mph 1026.7mb 57f 55f
10:42 7 8 mph 1026.7mb 57f 55f
10:36 7 8 mph 1026.6mb 57f 55f
10:30 8 9 mph 1026.6mb 57f 55f
10:24 8 8 mph 1026.6mb 57f 55f
10:18 8 9 mph 1026.5mb 57f 56f
10:12 8 9 mph 1026.4mb 57f 56f
10:06 8 9 mph 1026.4mb 57f 56f
10:00 7 8 mph 1026.4mb 57f 56f
9:54 7 8 mph 1026.3mb 57f 57f
9:48 6 7 mph 1026.3mb 57f 57f
9:42 6 6 mph 1026.3mb 57f 57f
9:36 6 6 mph 1026.1mb 57f 57f
9:30 6 6 mph 1026.1mb 57f 57f
9:24 6 6 mph 1026.1mb 57f 57f
9:18 3 5 mph 1026.2mb 57f 57f
9:12 3 3 mph 1026.1mb 57f 57f
9:06 3 5 mph 1025.9mb 57f 57f
9:00 3 5 mph 1025.9mb 57f 57f
8:54 3 5 mph 1025.8mb 57f 58f
8:48 5 5 mph 1025.7mb 57f 58f
8:42 5 5 mph 1025.6mb 57f 58f
8:36 6 6 mph 1025.5mb 57f 58f
8:30 6 7 mph 1025.6mb 57f 58f
8:24 6 8 mph 1025.5mb 57f 58f
8:18 8 10 mph 1025.3mb 57f 58f
8:12 9 10 mph 1025.2mb 57f 58f
8:06 9 10 mph 1024.9mb 57f 58f
8:00 10 11 mph 1024.8mb 57f 58f
7:54 9 10 mph 1024.7mb 57f 58f
7:48 9 10 mph 1024.8mb 57f 58f
7:42 9 9 mph 1024.8mb 57f 58f
7:36 8 9 mph 1024.8mb 57f 58f
7:30 8 8 mph 1024.5mb 57f 58f
7:24 8 8 mph 1024.4mb 57f 58f
7:18 8 9 mph 1024.3mb 57f 59f
7:12 8 9 mph 1024.2mb 57f 59f
7:06 8 8 mph 1024.3mb 57f 59f
7:00 8 9 mph 1024.3mb 57f 59f
6:30 8 9 mph 1024mb 57f 60f
6:24 9 9 mph 1024mb 57f 60f
6:18 8 9 mph 1024mb 57f 61f
6:12 8 9 mph 1024mb 57f 61f
6:06 8 9 mph 1023.9mb 57f 61f
6:00 7 8 mph 1024mb 57f 61f
5:54 8 9 mph 1023.8mb 57f 61f
5:48 8 9 mph 1023.7mb 57f 62f
5:42 9 11 mph 1023.7mb 57f 62f
5:36 9 11 mph 1023.7mb 57f 62f
5:30 10 13 mph 1023.7mb 57f 63f
5:24 11 13 mph 1023.8mb 57f 63f
5:18 11 14 mph 1023.7mb 57f 63f
5:12 11 14 mph 1023.7mb 57f 63f
5:06 13 15 mph 1023.5mb 57f 63f
5:00 11 15 mph 1023.4mb 57f 63f
4:54 14 15 mph 1023.3mb 57f 64f
4:48 13 14 mph 1023.2mb 57f 64f
4:42 13 15 mph 1023.1mb 57f 63f
4:36 15 17 mph 1023mb 57f 64f
4:30 14 17 mph 1023.1mb 57f 64f
4:24 13 16 mph 1023.1mb 57f 64f
4:18 14 17 mph 1022.9mb 57f 64f
4:12 14 16 mph 1022.7mb 57f 64f
4:06 13 15 mph 1022.8mb 57f 64f
4:00 13 15 mph 1022.8mb 57f 64f
3:54 14 16 mph 1022.7mb 57f 64f
3:48 13 16 mph 1022.8mb 57f -
3:42 14 16 mph 1022.8mb 57f 63f
3:36 14 17 mph 1022.8mb 56f 63f
3:30 14 15 mph 1022.7mb 56f 63f
3:24 13 15 mph 1022.7mb 56f 63f
3:18 13 14 mph 1022.5mb 56f 63f
3:12 11 16 mph 1022.6mb 56f 63f
3:06 14 17 mph 1022.5mb 56f 63f
3:00 13 15 mph 1022.5mb 56f 63f
2:54 14 17 mph 1022.6mb 56f 63f
2:48 14 16 mph 1022.4mb 56f 63f
2:42 16 17 mph 1022.4mb 56f 63f
2:36 15 17 mph 1022.2mb 56f 62f
2:30 15 17 mph 1022.4mb 56f 62f
2:24 14 16 mph 1022.4mb 56f 63f
2:18 14 17 mph 1022.5mb 56f 62f
2:12 14 18 mph 1022.5mb 56f 62f
2:06 14 17 mph 1022.5mb 56f 62f
2:00 14 17 mph 1022.4mb 56f 63f
1:54 15 18 mph 1022.4mb 56f 62f
1:48 15 18 mph 1022.4mb 56f 62f
1:42 15 18 mph 1022.5mb 56f 62f
1:36 17 21 mph 1022.4mb 56f 62f
1:30 16 21 mph 1022.5mb 56f 62f
1:24 17 20 mph 1022.4mb 56f 62f
1:18 17 21 mph 1022.5mb 56f 62f
1:12 18 21 mph 1022.5mb 56f 62f
1:06 15 18 mph 1022.7mb 56f 62f
1:00 16 20 mph 1022.9mb 56f 62f
12:54 18 22 mph 1023mb 56f 62f
12:48 20 24 mph 1023mb 56f 62f
12:42 16 20 mph 1022.9mb 56f 62f
12:36 17 20 mph 1023.2mb 56f 62f
12:30 18 22 mph 1023.1mb 56f 62f
12:24 18 21 mph 1023mb 56f 62f
12:18 18 23 mph 1022.9mb 56f 61f
12:12 18 22 mph 1022.9mb 56f 61f
12:06 18 21 mph 1022.9mb 56f 61f
12:00 17 21 mph 1022.8mb 56f 61f
11:54 18 23 mph 1022.9mb 56f 61f
11:48 21 23 mph 1023mb 56f 61f
11:24 18 23 mph 1023mb 56f 60f
11:18 18 24 mph 1022.9mb 56f -
11:06 22 24 mph 1022.6mb 56f 60f
11:00 18 24 mph 1022.5mb 56f 60f
10:54 23 25 mph 1022.6mb 56f 60f
10:48 21 22 mph 1022.6mb 56f 60f
10:42 18 23 mph 1022.6mb 56f 60f
10:36 21 22 mph 1022.5mb 56f 60f
10:30 17 22 mph 1022.3mb 55f -
10:24 17 20 mph 1022.3mb 55f 61f
10:18 18 21 mph 1022.2mb 55f 60f
10:12 17 20 mph 1022mb 55f 60f
10:06 15 17 mph 1021.9mb 55f 60f
10:00 11 14 mph 1022.1mb 55f 59f
9:54 14 16 mph 1022.1mb 55f 59f
9:48 11 14 mph 1021.9mb 55f 59f
9:42 10 13 mph 1021.9mb 55f 59f
9:36 10 13 mph 1021.7mb 55f 59f
9:30 10 11 mph 1021.9mb 55f 59f
9:24 9 10 mph 1021.9mb 55f 59f
9:18 9 9 mph 1021.9mb 55f 59f
9:12 6 7 mph 1021.6mb 55f 59f
9:06 6 7 mph 1021.6mb 55f 59f
9:00 6 6 mph 1021.5mb 55f 59f
8:54 5 6 mph 1021.5mb 55f 59f
8:48 5 6 mph 1021.3mb 55f 58f
8:42 6 9 mph 1021.1mb 55f 59f
8:36 8 11 mph 1021.1mb 55f 59f
8:30 9 10 mph 1021.1mb 55f 59f
8:24 8 10 mph 1020.9mb 55f 59f
8:18 9 10 mph 1020.9mb 55f 59f
8:12 9 11 mph 1020.8mb 56f 59f
8:06 9 11 mph 1020.8mb 56f 59f
8:00 9 10 mph 1020.7mb 56f 59f
7:54 9 13 mph 1020.4mb 56f 60f
7:48 10 11 mph 1020.3mb 56f 60f
7:42 11 14 mph 1019.9mb 56f 59f
7:36 13 16 mph 1019.6mb 56f 59f
7:30 15 18 mph 1019.5mb 56f 60f
7:24 15 16 mph 1019.6mb 56f 60f
7:18 14 16 mph 1019.2mb 56f 60f
7:12 15 18 mph 1018.7mb 56f 60f
7:06 15 18 mph 1018.3mb 56f 60f
7:00 16 18 mph - - -
6:54 17 20 mph 1017.9mb 56f 60f
6:48 18 23 mph 1017.8mb 56f 60f
6:42 22 26 mph 1017.7mb 56f 60f
6:36 23 25 mph 1017.6mb 56f 60f
6:30 21 26 mph 1017.5mb 56f 60f
6:24 24 26 mph 1017.2mb 56f 61f
6:18 22 25 mph 1017.1mb 56f 61f